Pagina principale
METAR-TAF:

METAR-TAF

Aeroporti :

Aeroporto di Chambéry Savoia

Chambery / Aix-Les-Bains, Francia

latitudine: 45-39N, longitudine: 005-53E, altezza: 235 m

Osservazione

Il bollettino è stato emesso 21 minuti fa, alle 10:30 UTC
Vento 6 kt da nord, variando fra nord-ovest e nord-est
Temperature 8°C
Umidità 66%
Pressione 1019 hPa
Visibilità: 9000 m
Poco nuvoloso ad un'altezza di 2700 ft

METAR: LFLB 181030Z AUTO 36006KT 310V040 9000 FEW027 08/02 Q1019 NOSIG

Ora: 11:51 (10:51 UTC)

Previsione

Il bollettino è stato emesso 5 ore e 51 minuti fa, alle 05:00 UTC
Previsione valida dal 18 alle 06 UTC al 19 alle 06 UTC
Vento 9 kt da nord
Visibilità: 9000 m
Nubi sparse ad un'altezza di 2500 ft

TAF: LFLB 180500Z 1806/1906 36009KT 9000 SCT025

Osservazioni e previsioni meteorologiche di più di 4000 aeroporti (messaggi METAR e TAF).

Le stazioni disponibili sono rappresentate dai dischi gialli e rossi sulla carta.

Puntare il mouse per vedere il nome della stazione.

Clicca sopra per visualizzare le osservazioni e previsioni meteorologiche.

Per cambiare la mappa : fare clic sui pulsanti verdi con una croce nera per ingrandire, il pulsante verde con un trattino per diminuire, o sulla freccia verde per le mappe adiacenti.


METAR-TAF: